Campanya meteocatpedra

Dades EMA la Tosa d'Alp 2500

?
?
Resum diari 21:00 TU
Dades diàries de l'estació meteorològica
Temperatura mitjana 13.1 °C
Temperatura màxima 16.5 °C 12:35 TU
Temperatura mínima 10.7 °C 4:14 TU
Humitat relativa mitjana 72%
Ratxa màxima del vent (10 m) 36.0 km/h - 201º 1:44 TU
Irradiació solar global 26.2 MJ/m2

El tram horari està expressat en Temps Universal (TU). Cal sumar una hora en horari d'hivern i dues en horari d'estiu per passar a l'hora oficial.

la Tosa d'Alp 2500

Metadades estació meteorol´gica
Municipi Alp
Comarca Cerdanya
Altitud 2478 m
Data alta 04.09.2014
Estat actual Operativa
Dades de període
Període
TU
TM
°C
TX
°C
TN
°C
HRM
%
VVM (10 m)
km/h
DVM (10 m)
graus
VVX (10 m)
km/h
RS
W/m2
00:00 - 00:30 12.5 12.7 12.3 50 25.9 212 33.5 0
00:30 - 01:00 11.9 12.3 11.7 54 25.2 198 32.0 0
01:00 - 01:30 11.7 11.8 11.5 57 27.0 196 33.5 0
01:30 - 02:00 11.7 11.8 11.6 59 28.8 197 36.0 0
02:00 - 02:30 11.6 11.7 11.6 60 24.5 196 29.5 0
02:30 - 03:00 11.8 11.8 11.7 61 24.8 200 28.4 0
03:00 - 03:30 11.6 11.8 11.4 62 23.8 192 32.0 0
03:30 - 04:00 11.2 11.6 10.8 64 24.5 186 31.7 0
04:00 - 04:30 10.9 11.2 10.7 67 22.0 191 27.4 0
04:30 - 05:00 11.2 11.4 11.1 65 21.6 200 25.2 1
05:00 - 05:30 11.4 11.5 11.3 67 18.7 217 25.9 16
05:30 - 06:00 11.4 11.7 11.2 68 16.9 221 25.9 65
06:00 - 06:30 11.9 12.1 11.7 68 25.6 209 31.0 160
06:30 - 07:00 12.2 12.3 12.1 71 22.7 217 32.4 237
07:00 - 07:30 12.6 12.8 12.3 74 19.4 220 29.9 321
07:30 - 08:00 12.7 12.9 12.6 75 14.4 227 29.5 247
08:00 - 08:30 13.4 13.6 12.9 71 14.4 229 28.4 358
08:30 - 09:00 13.4 13.5 13.2 72 14.0 230 25.9 397
09:00 - 09:30 14.1 14.4 13.5 65 10.1 226 23.0 513
09:30 - 10:00 14.8 15.2 14.2 61 7.2 228 21.6 652
10:00 - 10:30 15.4 15.8 14.9 56 9.0 236 22.0 806
10:30 - 11:00 15.4 16.1 14.9 61 6.5 243 20.5 869
11:00 - 11:30 15.6 16.2 15.0 60 6.5 252 20.9 904
11:30 - 12:00 15.5 16.0 14.9 61 6.5 241 16.9 1.019
12:00 - 12:30 15.9 16.3 15.6 61 6.8 217 18.7 1.003
12:30 - 13:00 15.8 16.5 15.1 67 9.0 191 20.5 1.045
13:00 - 13:30 15.1 15.9 14.7 69 13.3 198 26.6 949
13:30 - 14:00 15.2 15.7 14.6 71 18.4 191 29.9 898
14:00 - 14:30 15.1 15.6 14.6 75 20.5 186 32.0 816
14:30 - 15:00 14.6 15.0 14.4 78 21.6 186 31.3 637
15:00 - 15:30 14.8 15.3 14.4 78 24.1 184 34.6 686
15:30 - 16:00 14.5 15.0 14.2 75 23.8 178 34.2 503
16:00 - 16:30 14.5 15.1 14.3 71 23.4 179 33.8 480
16:30 - 17:00 14.4 14.7 14.0 73 22.7 178 31.0 426
17:00 - 17:30 13.9 14.2 13.4 76 22.7 180 30.6 294
17:30 - 18:00 13.2 13.4 13.0 83 22.7 178 29.5 162
18:00 - 18:30 12.6 12.9 12.1 95 22.0 178 30.6 75
18:30 - 19:00 12.0 12.3 11.6 100 20.2 180 31.3 9
19:00 - 19:30 11.6 12.2 11.2 100 20.2 208 34.2 0
19:30 - 20:00 11.4 11.6 11.1 99 15.8 219 30.6 0
20:00 - 20:30 11.2 11.6 10.9 99 14.4 227 23.8 0
20:30 - 21:00 11.0 11.3 10.9 100 12.2 230 18.4 0
21:00 - 21:30 11.0 11.2 10.9 99 12.2 244 18.7 0

Les dades en taronja només han passat un control de qualitat automàtic. Resta pendent la seva validació definitiva.